createdAt,value
2018-11-03T00:00:07.155Z,7.90
2018-11-03T00:02:37.962Z,7.80
2018-11-03T00:05:07.871Z,7.80
2018-11-03T00:07:41.085Z,7.80
2018-11-03T00:10:11.902Z,7.80
2018-11-03T00:12:43.790Z,7.80
2018-11-03T00:15:14.590Z,7.80
2018-11-03T00:17:44.386Z,7.80
2018-11-03T00:20:15.234Z,7.80
2018-11-03T00:22:45.041Z,7.90
2018-11-03T00:25:14.869Z,7.90
2018-11-03T00:27:49.259Z,7.90
2018-11-03T00:30:22.459Z,7.90
2018-11-03T00:32:53.254Z,7.90
2018-11-03T00:35:26.286Z,7.90
2018-11-03T00:37:56.267Z,7.90
2018-11-03T00:40:28.387Z,7.80
2018-11-03T00:42:58.299Z,7.80
2018-11-03T00:45:28.179Z,7.80
2018-11-03T00:48:01.089Z,7.80
2018-11-03T00:50:32.006Z,7.80
2018-11-03T00:53:07.027Z,7.80
2018-11-03T00:55:37.902Z,7.80
2018-11-03T00:58:07.803Z,7.80
2018-11-03T01:00:37.762Z,7.80
2018-11-03T01:03:09.594Z,7.80
2018-11-03T01:05:41.431Z,7.80
2018-11-03T01:08:12.311Z,7.80
2018-11-03T01:10:42.175Z,7.70
2018-11-03T01:13:18.159Z,7.70
2018-11-03T01:15:48.887Z,7.70
2018-11-03T01:18:19.742Z,7.70
2018-11-03T01:20:50.502Z,7.70
2018-11-03T01:23:20.319Z,7.70
2018-11-03T01:25:51.179Z,7.70
2018-11-03T01:28:22.026Z,7.60
2018-11-03T01:30:52.847Z,7.60
2018-11-03T01:33:29.550Z,7.60
2018-11-03T01:36:01.503Z,7.60
2018-11-03T01:38:35.925Z,7.60
2018-11-03T01:41:06.730Z,7.60
2018-11-03T01:43:36.578Z,7.60
2018-11-03T01:46:07.438Z,7.50
2018-11-03T01:48:40.525Z,7.50
2018-11-03T01:51:14.394Z,7.50
2018-11-03T01:53:44.212Z,7.50
2018-11-03T01:56:14.007Z,7.50
2018-11-03T01:58:43.806Z,7.50
2018-11-03T02:01:13.639Z,7.50
2018-11-03T02:03:43.552Z,7.50
2018-11-03T02:06:13.363Z,7.50
2018-11-03T02:08:44.223Z,7.50
2018-11-03T02:11:14.090Z,7.50
2018-11-03T02:13:43.927Z,7.50
2018-11-03T02:16:13.754Z,7.50
2018-11-03T02:18:44.591Z,7.50
2018-11-03T02:21:14.491Z,7.60
2018-11-03T02:23:44.315Z,7.60
2018-11-03T02:26:14.843Z,7.50
2018-11-03T02:28:45.675Z,7.50
2018-11-03T02:31:15.554Z,7.50
2018-11-03T02:33:49.235Z,7.50
2018-11-03T02:36:20.139Z,7.50
2018-11-03T02:38:50.029Z,7.50
2018-11-03T02:41:19.843Z,7.60
2018-11-03T02:43:49.675Z,7.60
2018-11-03T02:46:19.585Z,7.60
2018-11-03T02:48:50.374Z,7.60
2018-11-03T02:51:20.198Z,7.60
2018-11-03T02:53:50.046Z,7.60
2018-11-03T02:56:19.913Z,7.60
2018-11-03T02:58:49.769Z,7.60
2018-11-03T03:01:19.592Z,7.60
2018-11-03T03:03:49.724Z,7.50
2018-11-03T03:06:19.567Z,7.50
2018-11-03T03:08:49.426Z,7.50
2018-11-03T03:11:19.355Z,7.50
2018-11-03T03:13:49.263Z,7.50
2018-11-03T03:16:19.171Z,7.50
2018-11-03T03:18:49.070Z,7.40
2018-11-03T03:21:19.907Z,7.40
2018-11-03T03:23:51.751Z,7.40
2018-11-03T03:26:23.144Z,7.40
2018-11-03T03:28:54.065Z,7.50
2018-11-03T03:31:24.155Z,7.50
2018-11-03T03:33:56.063Z,7.60
2018-11-03T03:36:27.911Z,7.50
2018-11-03T03:39:09.326Z,7.50
2018-11-03T03:41:40.091Z,7.50
2018-11-03T03:44:10.919Z,7.50
2018-11-03T03:46:46.511Z,7.50
2018-11-03T03:49:17.371Z,7.50
2018-11-03T03:51:51.374Z,7.40
2018-11-03T03:54:21.332Z,7.40
2018-11-03T03:56:52.098Z,7.40
2018-11-03T03:59:22.007Z,7.40
2018-11-03T04:01:52.786Z,7.50
2018-11-03T04:04:24.555Z,7.50
2018-11-03T04:06:57.694Z,7.50
2018-11-03T04:09:28.507Z,7.50
2018-11-03T04:12:08.643Z,7.60
2018-11-03T04:14:38.471Z,7.60
2018-11-03T04:17:08.316Z,7.60
2018-11-03T04:19:38.219Z,7.60
2018-11-03T04:22:08.091Z,7.60
2018-11-03T04:24:38.920Z,7.60
2018-11-03T04:27:10.779Z,7.70
2018-11-03T04:29:44.922Z,7.70
2018-11-03T04:32:16.823Z,7.70
2018-11-03T04:34:48.603Z,7.70
2018-11-03T04:37:19.530Z,7.70
2018-11-03T04:39:50.855Z,7.70
2018-11-03T04:42:30.499Z,7.70
2018-11-03T04:45:05.115Z,7.80
2018-11-03T04:47:35.953Z,7.80
2018-11-03T04:50:06.536Z,7.80
2018-11-03T04:52:36.492Z,7.80
2018-11-03T04:55:07.104Z,7.80
2018-11-03T04:57:37.235Z,7.90
2018-11-03T05:00:08.951Z,7.90
2018-11-03T05:02:38.808Z,7.90
2018-11-03T05:05:09.679Z,7.90
2018-11-03T05:07:40.575Z,7.90
2018-11-03T05:10:12.479Z,7.90
2018-11-03T05:12:43.267Z,7.80
2018-11-03T05:15:13.187Z,7.80
2018-11-03T05:17:43.067Z,7.80
2018-11-03T05:20:17.533Z,7.80
2018-11-03T05:22:47.327Z,7.80
2018-11-03T05:25:17.199Z,7.70
2018-11-03T05:27:48.387Z,7.80
2018-11-03T05:30:18.246Z,7.80
2018-11-03T05:32:52.011Z,7.80
2018-11-03T05:35:23.835Z,7.80
2018-11-03T05:37:54.695Z,7.80
2018-11-03T05:40:24.652Z,7.80
2018-11-03T05:42:54.523Z,7.80
2018-11-03T05:45:27.511Z,7.80
2018-11-03T05:47:58.435Z,7.80
2018-11-03T05:50:28.403Z,7.80
2018-11-03T05:52:58.255Z,7.80
2018-11-03T05:55:35.871Z,7.80
2018-11-03T05:58:06.203Z,7.80
2018-11-03T06:00:37.023Z,7.80
2018-11-03T06:03:07.867Z,7.80
2018-11-03T06:05:41.504Z,7.80
2018-11-03T06:08:14.511Z,7.90
2018-11-03T06:10:44.345Z,7.90
2018-11-03T06:13:16.200Z,7.90
2018-11-03T06:15:47.080Z,7.90
2018-11-03T06:18:23.432Z,7.90
2018-11-03T06:20:53.332Z,7.90
2018-11-03T06:23:23.151Z,7.90
2018-11-03T06:25:53.055Z,7.90
2018-11-03T06:28:29.024Z,8.00
2018-11-03T06:31:06.859Z,8.00
2018-11-03T06:33:36.748Z,8.00
2018-11-03T06:36:06.682Z,8.00
2018-11-03T06:38:37.468Z,8.10
2018-11-03T06:41:07.399Z,8.10
2018-11-03T06:43:38.211Z,8.20
2018-11-03T06:46:08.068Z,8.20
2018-11-03T06:48:39.007Z,8.30
2018-11-03T06:51:08.911Z,8.30
2018-11-03T06:53:45.135Z,8.30
2018-11-03T06:56:16.995Z,8.40
2018-11-03T06:58:50.711Z,8.40
2018-11-03T07:01:20.635Z,8.50
2018-11-03T07:03:51.491Z,8.50
2018-11-03T07:06:22.431Z,8.60
2018-11-03T07:08:52.366Z,8.70
2018-11-03T07:11:27.130Z,8.80
2018-11-03T07:14:07.951Z,8.80
2018-11-03T07:16:37.843Z,8.80
2018-11-03T07:19:09.647Z,8.90
2018-11-03T07:21:41.615Z,9.00
2018-11-03T07:24:11.607Z,9.00
2018-11-03T07:26:44.635Z,9.10
2018-11-03T07:29:15.464Z,9.20
2018-11-03T07:31:45.303Z,9.40
2018-11-03T07:34:16.290Z,9.50
2018-11-03T07:36:55.395Z,9.60
2018-11-03T07:39:25.268Z,9.70
2018-11-03T07:41:58.847Z,9.80
2018-11-03T07:44:32.844Z,10.00
2018-11-03T07:47:02.703Z,10.10
2018-11-03T07:49:33.500Z,10.30
2018-11-03T07:52:07.091Z,10.50
2018-11-03T07:54:36.979Z,10.60
2018-11-03T07:57:07.674Z,10.80
2018-11-03T07:59:37.514Z,11.00
2018-11-03T08:02:08.555Z,11.20
2018-11-03T08:04:42.399Z,11.30
2018-11-03T08:07:12.283Z,11.40
2018-11-03T08:09:44.334Z,11.40
2018-11-03T08:12:15.314Z,11.50
2018-11-03T08:14:45.137Z,11.50
2018-11-03T08:17:15.035Z,11.60
2018-11-03T08:19:46.943Z,11.60
2018-11-03T08:22:16.858Z,11.70
2018-11-03T08:24:48.740Z,11.80
2018-11-03T08:27:19.571Z,11.90
2018-11-03T08:29:51.402Z,12.00
2018-11-03T08:32:21.311Z,12.20
2018-11-03T08:34:53.144Z,12.30
2018-11-03T08:37:25.039Z,12.40
2018-11-03T08:39:55.871Z,12.40
2018-11-03T08:42:25.814Z,12.50
2018-11-03T08:44:56.623Z,12.60
2018-11-03T08:47:27.491Z,12.80
2018-11-03T08:50:02.879Z,12.80
2018-11-03T08:52:37.043Z,12.60
2018-11-03T08:55:09.543Z,12.50
2018-11-03T08:57:43.251Z,12.50
2018-11-03T09:00:18.137Z,12.50
2018-11-03T09:02:57.363Z,12.20
2018-11-03T09:05:34.474Z,12.30
2018-11-03T09:08:04.311Z,12.40
2018-11-03T09:10:35.473Z,12.50
2018-11-03T09:13:07.247Z,12.60
2018-11-03T09:15:39.167Z,12.80
2018-11-03T09:18:13.095Z,12.70
2018-11-03T09:20:43.971Z,12.80
2018-11-03T09:23:16.951Z,12.90
2018-11-03T09:25:49.551Z,13.00
2018-11-03T09:28:23.659Z,13.10
2018-11-03T09:30:54.564Z,13.10
2018-11-03T09:33:25.319Z,12.90
2018-11-03T09:35:57.339Z,12.80
2018-11-03T09:38:31.009Z,12.70
2018-11-03T09:41:01.831Z,12.80
2018-11-03T09:43:33.597Z,12.90
2018-11-03T09:46:10.571Z,12.70
2018-11-03T09:48:43.731Z,12.50
2018-11-03T09:51:14.614Z,12.20
2018-11-03T09:53:45.398Z,11.90
2018-11-03T09:56:19.924Z,11.70
2018-11-03T09:58:50.788Z,11.60
2018-11-03T10:01:21.767Z,11.50
2018-11-03T10:03:54.468Z,11.60
2018-11-03T10:06:24.322Z,11.60
2018-11-03T10:08:54.131Z,11.60
2018-11-03T10:11:25.963Z,11.60
2018-11-03T10:13:56.059Z,11.60
2018-11-03T10:16:29.000Z,11.60
2018-11-03T10:18:58.879Z,11.50
2018-11-03T10:21:30.679Z,11.40
2018-11-03T10:24:00.539Z,11.30
2018-11-03T10:26:32.303Z,11.30
2018-11-03T10:29:03.334Z,11.30
2018-11-03T10:31:34.187Z,11.30
2018-11-03T10:34:08.994Z,11.20
2018-11-03T10:36:38.839Z,11.10
2018-11-03T10:39:13.592Z,11.20
2018-11-03T10:41:47.231Z,11.10
2018-11-03T10:44:21.139Z,11.10
2018-11-03T10:47:01.783Z,11.10
2018-11-03T10:49:32.631Z,11.30
2018-11-03T10:52:06.239Z,11.40
2018-11-03T10:54:37.051Z,11.40
2018-11-03T10:57:07.639Z,11.50
2018-11-03T10:59:37.751Z,11.60
2018-11-03T11:02:13.287Z,11.70
2018-11-03T11:04:48.435Z,11.90
2018-11-03T11:07:24.599Z,12.00
2018-11-03T11:10:11.307Z,12.10
2018-11-03T11:12:44.427Z,12.10
2018-11-03T11:15:32.747Z,12.00
2018-11-03T11:18:06.507Z,12.10
2018-11-03T11:20:37.395Z,12.30
2018-11-03T11:23:07.306Z,12.40
2018-11-03T11:25:40.308Z,12.50
2018-11-03T11:28:12.142Z,12.60
2018-11-03T11:30:44.148Z,12.50
2018-11-03T11:33:16.171Z,12.70
2018-11-03T11:35:50.739Z,13.00
2018-11-03T11:38:20.767Z,13.20
2018-11-03T11:40:53.892Z,13.30
2018-11-03T11:43:24.679Z,13.50
2018-11-03T11:45:55.588Z,13.60
2018-11-03T11:48:26.501Z,13.30
2018-11-03T11:51:00.215Z,13.30
2018-11-03T11:53:32.023Z,13.50
2018-11-03T11:56:07.066Z,13.70
2018-11-03T11:58:37.867Z,13.90
2018-11-03T12:01:09.767Z,13.80
2018-11-03T12:03:40.655Z,14.00
2018-11-03T12:06:13.825Z,14.60
2018-11-03T12:08:45.672Z,14.90
2018-11-03T12:11:17.663Z,14.70
2018-11-03T12:13:47.467Z,14.70
2018-11-03T12:16:18.556Z,14.80
2018-11-03T12:18:49.208Z,14.70
2018-11-03T12:21:19.279Z,14.40
2018-11-03T12:23:52.720Z,14.20
2018-11-03T12:26:34.755Z,14.10
2018-11-03T12:29:04.775Z,13.70
2018-11-03T12:31:36.619Z,13.50
2018-11-03T12:34:13.208Z,13.60
2018-11-03T12:36:45.619Z,13.80
2018-11-03T12:39:29.612Z,14.10
2018-11-03T12:41:59.523Z,14.30
2018-11-03T12:44:32.799Z,14.50
2018-11-03T12:47:02.764Z,14.50
2018-11-03T12:49:33.584Z,14.30
2018-11-03T12:52:03.713Z,14.30
2018-11-03T12:54:33.530Z,14.20
2018-11-03T12:57:08.928Z,14.40
2018-11-03T12:59:38.776Z,14.60
2018-11-03T13:02:11.872Z,14.80
2018-11-03T13:04:43.812Z,14.80
2018-11-03T13:07:18.093Z,14.70
2018-11-03T13:09:50.310Z,14.70
2018-11-03T13:12:23.447Z,14.50
2018-11-03T13:14:54.296Z,14.40
2018-11-03T13:17:26.116Z,14.40
2018-11-03T13:19:55.908Z,14.50
2018-11-03T13:22:25.724Z,14.40
2018-11-03T13:24:55.592Z,14.30
2018-11-03T13:27:25.499Z,14.20
2018-11-03T13:29:57.355Z,14.10
2018-11-03T13:32:27.257Z,14.10
2018-11-03T13:34:58.171Z,14.20
2018-11-03T13:37:28.036Z,14.20
2018-11-03T13:40:02.446Z,14.20
2018-11-03T13:42:32.465Z,14.10
2018-11-03T13:45:06.466Z,13.90
2018-11-03T13:47:39.134Z,13.70
2018-11-03T13:50:16.491Z,13.60
2018-11-03T13:52:50.747Z,13.60
2018-11-03T13:55:24.884Z,13.50
2018-11-03T13:58:01.773Z,13.50
2018-11-03T14:00:32.640Z,13.60
2018-11-03T14:03:07.537Z,13.50
2018-11-03T14:05:39.387Z,13.50
2018-11-03T14:08:10.203Z,13.40
2018-11-03T14:10:42.120Z,13.40
2018-11-03T14:13:12.004Z,13.30
2018-11-03T14:15:42.869Z,13.20
2018-11-03T14:18:12.677Z,13.20
2018-11-03T14:20:42.539Z,13.10
2018-11-03T14:23:12.478Z,13.00
2018-11-03T14:25:42.423Z,12.90
2018-11-03T14:30:33.532Z,12.80
2018-11-03T14:33:07.524Z,12.70
2018-11-03T14:35:40.508Z,12.60
2018-11-03T14:38:12.348Z,12.60
2018-11-03T14:40:42.243Z,12.60
2018-11-03T14:43:18.396Z,12.60
2018-11-03T14:46:05.504Z,12.60
2018-11-03T14:48:38.556Z,12.50
2018-11-03T14:51:10.534Z,12.50
2018-11-03T14:53:40.237Z,12.50
2018-11-03T14:56:14.939Z,12.40
2018-11-03T14:58:44.840Z,12.40
2018-11-03T15:01:15.672Z,12.40
2018-11-03T15:03:47.559Z,12.30
2018-11-03T15:06:18.379Z,12.30
2018-11-03T15:08:51.392Z,12.20
2018-11-03T15:11:22.255Z,12.20
2018-11-03T15:14:06.503Z,12.20
2018-11-03T15:16:38.707Z,12.10
2018-11-03T15:19:10.667Z,12.10
2018-11-03T15:21:42.535Z,12.00
2018-11-03T15:24:22.039Z,11.90
2018-11-03T15:27:04.513Z,11.90
2018-11-03T15:29:35.315Z,11.80
2018-11-03T15:32:07.139Z,11.80
2018-11-03T15:34:37.007Z,11.70
2018-11-03T15:37:10.812Z,11.70
2018-11-03T15:39:44.455Z,11.60
2018-11-03T15:42:16.536Z,11.60
2018-11-03T15:44:52.547Z,11.60
2018-11-03T15:47:25.895Z,11.60
2018-11-03T15:49:59.895Z,11.50
2018-11-03T15:52:30.924Z,11.50
2018-11-03T15:55:00.741Z,11.50
2018-11-03T15:57:30.572Z,11.40
2018-11-03T16:00:00.496Z,11.40
2018-11-03T16:02:31.347Z,11.40
2018-11-03T16:05:02.270Z,11.40
2018-11-03T16:07:32.163Z,11.40
2018-11-03T16:10:08.080Z,11.40
2018-11-03T16:12:45.351Z,11.40
2018-11-03T16:15:18.395Z,11.30
2018-11-03T16:17:48.172Z,11.30
2018-11-03T16:20:21.144Z,11.30
2018-11-03T16:22:52.128Z,11.30
2018-11-03T16:25:28.644Z,11.30
2018-11-03T16:28:00.395Z,11.20
2018-11-03T16:30:30.212Z,11.20
2018-11-03T16:32:59.995Z,11.20
2018-11-03T16:35:30.103Z,11.10
2018-11-03T16:37:59.908Z,11.10
2018-11-03T16:40:32.809Z,11.10
2018-11-03T16:43:03.657Z,11.10
2018-11-03T16:45:37.559Z,11.00
2018-11-03T16:48:07.456Z,11.00
2018-11-03T16:50:37.351Z,11.00
2018-11-03T16:53:08.228Z,11.00
2018-11-03T16:55:38.103Z,10.90
2018-11-03T16:58:09.968Z,10.90
2018-11-03T17:00:39.812Z,10.90
2018-11-03T17:03:09.572Z,10.90
2018-11-03T17:05:40.024Z,10.90
2018-11-03T17:08:10.842Z,10.90
2018-11-03T17:10:40.679Z,10.90
2018-11-03T17:13:12.648Z,11.00
2018-11-03T17:15:47.811Z,10.90
2018-11-03T17:18:19.668Z,11.00
2018-11-03T17:20:53.140Z,11.00
2018-11-03T17:23:26.940Z,11.00
2018-11-03T17:25:57.763Z,11.00
2018-11-03T17:28:28.559Z,10.90
2018-11-03T17:30:58.444Z,10.90
2018-11-03T17:33:28.252Z,10.90
2018-11-03T17:35:58.067Z,10.90
2018-11-03T17:38:31.028Z,10.80
2018-11-03T17:41:00.960Z,10.80
2018-11-03T17:43:35.499Z,10.80
2018-11-03T17:46:08.600Z,10.80
2018-11-03T17:48:38.411Z,10.70
2018-11-03T17:51:08.327Z,10.70
2018-11-03T17:53:38.203Z,10.70
2018-11-03T17:56:08.014Z,10.60
2018-11-03T17:58:38.784Z,10.60
2018-11-03T18:01:10.012Z,10.60
2018-11-03T18:03:39.661Z,10.50
2018-11-03T18:06:10.593Z,10.50
2018-11-03T18:08:40.465Z,10.50
2018-11-03T18:11:12.268Z,10.50
2018-11-03T18:13:44.195Z,10.50
2018-11-03T18:16:14.083Z,10.50
2018-11-03T18:18:44.919Z,10.50
2018-11-03T18:21:17.792Z,10.50
2018-11-03T18:24:00.625Z,10.50
2018-11-03T18:26:32.418Z,10.40
2018-11-03T18:29:02.135Z,10.40
2018-11-03T18:31:33.024Z,10.40
2018-11-03T18:34:03.884Z,10.40
2018-11-03T18:36:35.596Z,10.40
2018-11-03T18:39:08.536Z,10.40
2018-11-03T18:41:38.512Z,10.30
2018-11-03T18:44:11.512Z,10.30
2018-11-03T18:46:41.401Z,10.30
2018-11-03T18:49:11.140Z,10.20
2018-11-03T18:51:41.053Z,10.20
2018-11-03T18:54:11.972Z,10.20
2018-11-03T18:56:43.720Z,10.20
2018-11-03T18:59:13.656Z,10.10
2018-11-03T19:01:43.512Z,10.10
2018-11-03T19:04:13.300Z,10.10
2018-11-03T19:06:44.096Z,10.10
2018-11-03T19:09:14.935Z,10.10
2018-11-03T19:11:44.728Z,10.00
2018-11-03T19:14:14.552Z,10.10
2018-11-03T19:16:45.384Z,10.10
2018-11-03T19:19:15.324Z,10.10
2018-11-03T19:21:45.227Z,10.00
2018-11-03T19:24:20.912Z,10.00
2018-11-03T19:26:51.708Z,10.00
2018-11-03T19:29:21.641Z,10.00
2018-11-03T19:31:53.467Z,10.00
2018-11-03T19:34:26.556Z,10.00
2018-11-03T19:36:57.362Z,10.00
2018-11-03T19:39:27.448Z,10.00
2018-11-03T19:41:58.400Z,10.00
2018-11-03T19:44:29.347Z,10.00
2018-11-03T19:47:01.296Z,9.90
2018-11-03T19:49:31.140Z,10.00
2018-11-03T19:52:01.016Z,9.90
2018-11-03T19:54:35.615Z,9.90
2018-11-03T19:57:07.413Z,9.90
2018-11-03T19:59:41.264Z,9.90
2018-11-03T20:02:11.288Z,9.90
2018-11-03T20:04:42.160Z,9.90
2018-11-03T20:07:14.064Z,9.90
2018-11-03T20:09:45.924Z,9.90
2018-11-03T20:12:16.848Z,9.90
2018-11-03T20:14:47.753Z,9.90
2018-11-03T20:17:25.756Z,9.90
2018-11-03T20:19:55.696Z,9.90
2018-11-03T20:22:25.582Z,9.90
2018-11-03T20:24:55.504Z,9.80
2018-11-03T20:27:37.364Z,9.80
2018-11-03T20:30:12.928Z,9.80
2018-11-03T20:32:47.569Z,9.80
2018-11-03T20:35:29.897Z,9.80
2018-11-03T20:38:06.245Z,9.80
2018-11-03T20:40:36.140Z,9.80
2018-11-03T20:43:06.104Z,9.70
2018-11-03T20:45:40.032Z,9.80
2018-11-03T20:48:10.064Z,9.80
2018-11-03T20:50:40.903Z,9.70
2018-11-03T20:53:10.814Z,9.80
2018-11-03T20:55:40.720Z,9.70
2018-11-03T20:58:10.620Z,9.80
2018-11-03T21:00:40.792Z,9.80
2018-11-03T21:03:11.593Z,9.70
2018-11-03T21:05:42.524Z,9.80
2018-11-03T21:08:13.725Z,9.80
2018-11-03T21:10:43.468Z,9.80
2018-11-03T21:13:13.400Z,9.70
2018-11-03T21:15:43.328Z,9.70
2018-11-03T21:18:13.226Z,9.70
2018-11-03T21:20:43.147Z,9.70
2018-11-03T21:23:13.080Z,9.70
2018-11-03T21:25:42.944Z,9.70
2018-11-03T21:28:14.824Z,9.70
2018-11-03T21:30:44.648Z,9.70
2018-11-03T21:33:15.661Z,9.70
2018-11-03T21:35:49.448Z,9.60
2018-11-03T21:38:21.460Z,9.60
2018-11-03T21:40:52.279Z,9.60
2018-11-03T21:43:22.212Z,9.60
2018-11-03T21:45:52.022Z,9.60
2018-11-03T21:48:21.899Z,9.60
2018-11-03T21:50:52.738Z,9.60
2018-11-03T21:53:22.660Z,9.50
2018-11-03T21:55:53.575Z,9.50
2018-11-03T21:58:23.428Z,9.50
2018-11-03T22:00:53.328Z,9.50
2018-11-03T22:03:23.256Z,9.40
2018-11-03T22:05:55.062Z,9.40
2018-11-03T22:08:26.952Z,9.40
2018-11-03T22:10:58.823Z,9.40
2018-11-03T22:13:34.304Z,9.30
2018-11-03T22:16:04.530Z,9.30
2018-11-03T22:18:43.060Z,9.30
2018-11-03T22:21:20.540Z,9.30
2018-11-03T22:23:54.080Z,9.30
2018-11-03T22:26:24.984Z,9.30
2018-11-03T22:28:59.184Z,9.30
2018-11-03T22:31:29.461Z,9.30
2018-11-03T22:34:00.344Z,9.20
2018-11-03T22:36:31.292Z,9.20
2018-11-03T22:39:01.196Z,9.20
2018-11-03T22:41:31.220Z,9.20
2018-11-03T22:44:01.101Z,9.10
2018-11-03T22:46:32.558Z,9.20
2018-11-03T22:49:03.472Z,9.10
2018-11-03T22:51:34.449Z,9.10
2018-11-03T22:54:04.220Z,9.10
2018-11-03T22:56:34.176Z,9.10
2018-11-03T22:59:08.275Z,9.10
2018-11-03T23:01:42.198Z,9.10
2018-11-03T23:04:14.024Z,9.20
2018-11-03T23:06:49.382Z,9.20
2018-11-03T23:09:20.281Z,9.20
2018-11-03T23:11:51.116Z,9.20
2018-11-03T23:14:21.972Z,9.30
2018-11-03T23:16:51.896Z,9.30
2018-11-03T23:19:23.758Z,9.30
2018-11-03T23:21:55.674Z,9.20
2018-11-03T23:24:31.376Z,9.30
2018-11-03T23:27:06.100Z,9.30
2018-11-03T23:29:37.103Z,9.30
2018-11-03T23:32:06.988Z,9.30
2018-11-03T23:34:36.884Z,9.30
2018-11-03T23:37:09.764Z,9.30
2018-11-03T23:39:39.552Z,9.30
2018-11-03T23:42:09.428Z,9.30
2018-11-03T23:44:41.292Z,9.30
2018-11-03T23:47:11.124Z,9.30
2018-11-03T23:49:41.348Z,9.30
2018-11-03T23:52:13.172Z,9.30
2018-11-03T23:54:44.025Z,9.40
2018-11-03T23:57:16.996Z,9.40
2018-11-03T23:59:47.881Z,9.40
